createdAt,value
2022-09-06T04:03:26.090Z,0.00
2022-09-06T04:21:45.230Z,0.00
2022-09-06T04:59:14.304Z,24.00
2022-09-06T05:14:05.811Z,95.00
2022-09-06T05:15:06.679Z,81.00
2022-09-06T05:16:06.890Z,96.00
2022-09-06T05:17:06.633Z,109.00
2022-09-06T05:18:06.717Z,116.00
2022-09-06T05:19:07.112Z,120.00
2022-09-06T05:20:06.585Z,126.00
2022-09-06T05:21:06.657Z,131.00
2022-09-06T05:22:06.595Z,136.00
2022-09-06T05:23:06.547Z,134.00
2022-09-06T05:24:06.565Z,134.00
2022-09-06T05:25:06.547Z,130.00
2022-09-06T05:26:06.634Z,128.00
2022-09-06T05:27:06.510Z,122.00
2022-09-06T05:28:06.573Z,130.00
2022-09-06T05:29:06.493Z,139.00
2022-09-06T05:30:06.504Z,142.00
2022-09-06T05:31:06.591Z,152.00
2022-09-06T05:32:06.570Z,169.00
2022-09-06T05:33:06.444Z,196.00
2022-09-06T05:34:06.444Z,234.00
2022-09-06T05:35:06.448Z,272.00
2022-09-06T05:36:06.441Z,314.00
2022-09-06T05:37:06.420Z,361.00
2022-09-06T05:38:06.396Z,393.00
2022-09-06T05:39:06.457Z,419.00
2022-09-06T05:40:06.436Z,430.00
2022-09-06T05:41:06.450Z,443.00
2022-09-06T05:42:06.384Z,459.00
2022-09-06T05:43:06.377Z,475.00
2022-09-06T05:44:06.363Z,503.00
2022-09-06T05:45:06.324Z,537.00
2022-09-06T05:46:06.581Z,576.00
2022-09-06T05:47:06.334Z,610.00
2022-09-06T05:48:06.300Z,648.00
2022-09-06T05:49:06.319Z,678.00
2022-09-06T05:50:06.292Z,707.00
2022-09-06T05:51:06.307Z,731.00
2022-09-06T06:01:51.862Z,880.00
2022-09-06T06:02:52.831Z,849.00
2022-09-06T06:03:52.800Z,888.00
2022-09-06T06:04:52.660Z,934.00
2022-09-06T06:06:00.480Z,981.00
2022-09-06T06:06:52.641Z,1032.00
2022-09-06T06:07:52.867Z,1071.00
2022-09-06T06:08:52.642Z,1126.00
2022-09-06T06:09:52.645Z,1190.00
2022-09-06T06:10:52.641Z,1263.00
2022-09-06T06:11:52.580Z,1344.00
2022-09-06T06:12:52.655Z,1404.00
2022-09-06T06:13:52.577Z,1468.00
2022-09-06T06:14:52.541Z,1514.00
2022-09-06T06:15:52.534Z,1556.00
2022-09-06T06:16:52.606Z,1591.00
2022-09-06T06:17:59.913Z,1593.00
2022-09-06T06:18:55.314Z,1592.00
2022-09-06T06:19:52.500Z,1582.00
2022-09-06T06:20:52.491Z,1573.00
2022-09-06T06:21:52.475Z,1578.00
2022-09-06T07:43:50.251Z,2089.00
2022-09-06T07:44:51.239Z,2087.00
2022-09-06T07:45:51.206Z,2089.00
2022-09-06T07:46:51.416Z,2086.00
2022-09-06T07:47:58.618Z,2081.00
2022-09-06T07:48:51.373Z,2079.00
2022-09-06T07:50:52.560Z,2102.00
2022-09-06T07:51:51.032Z,2105.00
2022-09-06T07:53:57.844Z,2115.00
2022-09-06T07:54:51.016Z,2096.00
2022-09-06T07:55:50.976Z,2106.00
2022-09-06T07:57:03.307Z,2119.00
2022-09-06T08:51:59.612Z,2319.00
2022-09-06T08:53:16.262Z,2300.00
2022-09-06T08:54:00.550Z,2313.00
2022-09-06T08:55:00.428Z,2310.00
2022-09-06T08:56:00.406Z,2315.00
2022-09-06T08:57:00.401Z,2322.00
2022-09-06T08:58:00.381Z,2330.00
2022-09-06T08:59:00.474Z,2360.00
2022-09-06T09:00:00.357Z,2336.00
2022-09-06T09:01:00.410Z,2359.00
2022-09-06T09:02:00.390Z,2360.00
2022-09-06T09:03:00.369Z,2366.00
2022-09-06T09:04:00.338Z,2349.00
2022-09-06T09:05:00.310Z,2372.00
2022-09-06T09:06:00.313Z,2370.00
2022-09-06T09:07:00.303Z,2385.00
2022-09-06T09:08:00.296Z,2381.00
2022-09-06T09:09:00.320Z,2383.00
2022-09-06T09:10:00.258Z,2424.00
2022-09-06T09:11:00.261Z,2360.00
2022-09-06T09:12:00.231Z,2463.00
2022-09-06T09:13:00.228Z,2392.00
2022-09-06T09:14:00.215Z,2391.00
2022-09-06T09:15:00.207Z,2417.00
2022-09-06T09:16:00.300Z,2414.00
2022-09-06T09:17:00.194Z,2423.00
2022-09-06T09:18:00.268Z,2445.00
2022-09-06T09:19:00.170Z,2431.00
2022-09-06T09:20:00.199Z,2438.00
2022-09-06T09:21:00.169Z,2435.00
2022-09-06T09:22:00.153Z,2479.00
2022-09-06T09:23:00.139Z,2455.00
2022-09-06T09:24:00.114Z,2458.00
2022-09-06T09:25:00.123Z,2490.00
2022-09-06T09:26:00.125Z,2465.00
2022-09-06T09:27:00.098Z,2463.00
2022-09-06T09:28:00.071Z,2498.00
2022-09-06T09:29:00.068Z,2467.00
2022-09-06T09:31:00.140Z,2499.00
2022-09-06T09:32:00.065Z,2510.00
2022-09-06T09:33:00.054Z,2538.00
2022-09-06T09:34:00.006Z,2507.00
2022-09-06T09:35:00.004Z,2556.00
2022-09-06T09:36:00.002Z,2556.00
2022-09-06T09:38:05.043Z,2565.00
2022-09-06T09:38:59.994Z,2575.00
2022-09-06T09:40:00.039Z,2565.00
2022-09-06T09:40:59.970Z,2563.00
2022-09-06T09:41:59.932Z,2572.00
2022-09-06T09:42:59.919Z,2590.00
2022-09-06T09:44:03.811Z,2621.00
2022-09-06T09:44:59.991Z,2591.00
2022-09-06T09:45:59.899Z,2636.00
2022-09-06T09:46:59.968Z,2673.00
2022-09-06T09:47:59.908Z,2681.00
2022-09-06T09:48:59.871Z,2674.00
2022-09-06T09:49:59.835Z,2672.00
2022-09-06T09:50:59.871Z,2667.00
2022-09-06T09:51:59.821Z,2692.00
2022-09-06T09:52:59.816Z,2693.00
2022-09-06T09:53:59.811Z,2696.00
2022-09-06T09:54:59.825Z,2710.00
2022-09-06T09:55:59.776Z,2712.00
2022-09-06T09:56:59.774Z,2683.00
2022-09-06T09:57:59.853Z,2726.00
2022-09-06T09:58:59.759Z,2703.00
2022-09-06T09:59:59.718Z,2760.00
2022-09-06T10:00:59.779Z,2761.00
2022-09-06T10:01:59.749Z,2694.00
2022-09-06T10:02:59.720Z,2731.00
2022-09-06T10:04:59.797Z,2747.00
2022-09-06T10:06:02.667Z,2727.00
2022-09-06T10:07:14.892Z,2771.00
2022-09-06T10:07:59.652Z,2777.00
2022-09-06T10:08:59.697Z,2779.00
2022-09-06T10:09:59.700Z,2813.00
2022-09-06T10:10:59.619Z,2816.00
2022-09-06T10:12:00.516Z,2826.00
2022-09-06T10:12:59.614Z,2815.00
2022-09-06T10:13:59.611Z,2803.00
2022-09-06T10:15:02.427Z,2807.00
2022-09-06T10:15:59.608Z,2840.00
2022-09-06T10:16:59.604Z,2859.00
2022-09-06T10:17:59.656Z,2868.00
2022-09-06T10:18:59.535Z,2858.00
2022-09-06T10:19:59.516Z,2882.00
2022-09-06T10:20:59.551Z,2870.00
2022-09-06T10:21:59.499Z,2918.00
2022-09-06T10:22:59.496Z,2890.00
2022-09-06T10:24:59.492Z,2842.00
2022-09-06T10:25:59.472Z,2865.00
2022-09-06T10:26:59.450Z,2863.00
2022-09-06T10:28:10.885Z,2880.00
2022-09-06T10:28:59.455Z,2896.00
2022-09-06T10:29:59.422Z,2903.00
2022-09-06T10:30:59.539Z,2918.00
2022-09-06T10:31:59.390Z,2934.00
2022-09-06T10:32:59.400Z,2908.00
2022-09-06T10:33:59.479Z,2901.00
2022-09-06T10:34:59.376Z,2941.00
2022-09-06T10:35:59.342Z,2966.00
2022-09-06T10:36:59.391Z,2981.00
2022-09-06T10:37:59.636Z,2952.00
2022-09-06T10:39:03.545Z,3008.00
2022-09-06T10:39:59.397Z,2967.00
2022-09-06T10:40:59.324Z,2965.00
2022-09-06T10:41:59.342Z,2971.00
2022-09-06T10:42:59.355Z,2936.00
2022-09-06T10:43:59.296Z,2934.00
2022-09-06T10:44:59.274Z,2931.00
2022-09-06T10:45:59.277Z,2998.00
2022-09-06T10:46:59.263Z,3042.00
2022-09-06T10:47:59.232Z,2988.00
2022-09-06T10:48:59.227Z,2960.00
2022-09-06T10:49:59.208Z,2948.00
2022-09-06T10:50:59.219Z,2921.00
2022-09-06T10:51:59.181Z,2967.00
2022-09-06T10:52:59.237Z,2951.00
2022-09-06T10:53:59.172Z,2959.00
2022-09-06T10:54:59.160Z,2979.00
2022-09-06T10:56:01.457Z,2998.00
2022-09-06T10:56:59.235Z,3007.00
2022-09-06T10:59:59.136Z,3019.00
2022-09-06T11:00:59.108Z,3021.00
2022-09-06T11:01:59.213Z,3014.00
2022-09-06T11:04:04.184Z,3035.00
2022-09-06T11:05:59.060Z,3030.00
2022-09-06T11:06:59.037Z,3056.00
2022-09-06T11:08:59.301Z,3031.00
2022-09-06T11:09:59.005Z,3050.00
2022-09-06T11:10:59.007Z,3020.00
2022-09-06T11:11:58.993Z,3051.00
2022-09-06T11:12:58.996Z,3064.00
2022-09-06T11:14:02.481Z,3004.00
2022-09-06T11:14:58.976Z,3014.00
2022-09-06T11:15:59.011Z,3017.00
2022-09-06T11:16:58.992Z,3040.00
2022-09-06T11:17:58.941Z,3049.00
2022-09-06T11:18:58.913Z,3056.00
2022-09-06T11:19:58.916Z,3081.00
2022-09-06T11:20:58.897Z,3072.00
2022-09-06T11:21:58.880Z,3092.00
2022-09-06T11:22:58.936Z,3089.00
2022-09-06T11:27:43.596Z,3116.00
2022-09-06T11:28:44.613Z,3118.00
2022-09-06T11:29:44.581Z,3131.00
2022-09-06T11:30:44.444Z,3117.00
2022-09-06T11:32:44.405Z,3088.00
2022-09-06T11:33:44.355Z,3141.00
2022-09-06T11:34:44.370Z,3102.00
2022-09-06T11:35:44.454Z,3128.00
2022-09-06T11:36:59.008Z,3144.00
2022-09-06T11:37:44.867Z,3127.00
2022-09-06T11:38:44.425Z,3145.00
2022-09-06T11:40:44.381Z,3109.00
2022-09-06T11:41:44.381Z,3101.00
2022-09-06T11:42:44.938Z,3110.00
2022-09-06T11:43:44.272Z,3154.00
2022-09-06T11:44:44.336Z,3115.00
2022-09-06T11:45:45.139Z,3121.00
2022-09-06T11:46:44.257Z,3123.00
2022-09-06T11:47:44.238Z,3090.00
2022-09-06T11:48:44.197Z,3096.00
2022-09-06T11:49:44.225Z,3111.00
2022-09-06T11:50:44.167Z,3121.00
2022-09-06T11:51:44.186Z,3122.00
2022-09-06T11:52:44.201Z,3076.00
2022-09-06T11:53:44.152Z,3103.00
2022-09-06T11:54:44.149Z,3120.00
2022-09-06T11:55:44.135Z,3104.00
2022-09-06T11:56:44.113Z,3091.00
2022-09-06T13:20:20.704Z,4156.00
2022-09-06T13:21:21.549Z,4100.00
2022-09-06T13:22:21.493Z,4129.00
2022-09-06T13:23:21.480Z,4359.00
2022-09-06T13:24:21.737Z,4378.00
2022-09-06T13:25:21.442Z,4978.00
2022-09-06T13:26:21.536Z,3384.00
2022-09-06T13:27:21.451Z,3801.00
2022-09-06T13:28:21.553Z,3852.00
2022-09-06T13:29:21.425Z,3617.00
2022-09-06T13:30:21.393Z,3658.00
2022-09-06T13:31:21.431Z,3673.00
2022-09-06T13:32:21.393Z,3885.00
2022-09-06T13:33:21.364Z,4426.00
2022-09-06T13:34:21.364Z,4428.00
2022-09-06T13:35:21.409Z,4418.00
2022-09-06T13:36:21.336Z,3863.00
2022-09-06T13:37:21.329Z,3817.00
2022-09-06T13:38:21.345Z,3577.00
2022-09-06T13:39:21.327Z,3593.00
2022-09-06T13:40:21.310Z,3453.00
2022-09-06T13:41:21.285Z,3517.00
2022-09-06T13:42:21.288Z,3678.00
2022-09-06T13:43:21.273Z,3872.00
2022-09-06T13:44:21.289Z,3357.00
2022-09-06T13:45:21.258Z,5040.00
2022-09-06T13:46:21.853Z,4496.00
2022-09-06T13:47:21.262Z,2729.00
2022-09-06T13:58:47.464Z,3762.00
2022-09-06T13:59:47.662Z,3771.00
2022-09-06T14:00:47.595Z,3543.00
2022-09-06T14:01:48.739Z,4087.00
2022-09-06T14:02:47.673Z,3846.00
2022-09-06T14:03:47.640Z,3969.00
2022-09-06T14:04:47.554Z,4123.00
2022-09-06T14:05:47.536Z,4133.00
2022-09-06T14:06:47.526Z,4133.00
2022-09-06T14:07:47.542Z,3983.00
2022-09-06T14:09:06.261Z,3838.00
2022-09-06T14:09:47.506Z,3697.00
2022-09-06T14:10:47.502Z,3590.00
2022-09-06T14:20:34.002Z,4052.00
2022-09-06T14:21:34.840Z,3849.00
2022-09-06T14:22:34.782Z,4122.00
2022-09-06T14:23:34.829Z,4567.00
2022-09-06T14:24:35.651Z,4695.00
2022-09-06T14:25:34.711Z,4552.00
2022-09-06T14:26:34.745Z,4324.00
2022-09-06T14:27:34.684Z,4189.00
2022-09-06T14:28:34.690Z,4108.00
2022-09-06T14:29:34.815Z,3889.00
2022-09-06T14:30:34.864Z,3838.00
2022-09-06T14:31:43.681Z,3878.00
2022-09-06T14:32:34.665Z,3939.00
2022-09-06T14:33:35.952Z,4638.00
2022-09-06T14:34:34.609Z,3841.00
2022-09-06T15:22:18.255Z,6568.00
2022-09-06T15:23:27.581Z,6607.00
2022-09-06T15:24:19.319Z,6564.00
2022-09-06T15:25:19.107Z,6622.00
2022-09-06T15:26:19.077Z,6704.00
2022-09-06T15:27:19.151Z,6586.00
2022-09-06T15:28:19.093Z,6492.00
2022-09-06T15:31:27.684Z,6711.00
2022-09-06T16:43:38.022Z,5668.00
2022-09-06T16:44:39.016Z,3629.00
2022-09-06T16:45:38.948Z,7552.00
2022-09-06T16:46:38.671Z,10587.00
2022-09-06T16:47:38.684Z,8007.00
2022-09-06T16:48:38.700Z,4142.00
2022-09-06T16:49:38.651Z,2238.00
2022-09-06T19:22:26.315Z,0.00
2022-09-06T20:18:29.778Z,0.00
2022-09-06T20:23:37.212Z,0.00
2022-09-06T20:24:38.367Z,0.00
2022-09-06T20:25:38.077Z,0.00
2022-09-06T20:26:38.078Z,0.00
2022-09-06T20:27:42.530Z,0.00
2022-09-06T20:28:38.037Z,0.00
2022-09-06T20:29:37.977Z,0.00
2022-09-06T20:30:38.159Z,0.00
2022-09-06T20:31:38.305Z,0.00
2022-09-06T20:32:38.116Z,0.00
2022-09-06T20:33:38.145Z,0.00
2022-09-06T20:34:38.044Z,0.00
2022-09-06T20:35:37.957Z,0.00
2022-09-06T20:36:38.207Z,0.00
2022-09-06T20:37:37.956Z,0.00
2022-09-06T20:54:20.024Z,0.00
2022-09-06T20:57:59.343Z,0.00
2022-09-06T20:58:59.459Z,0.00
2022-09-06T20:59:59.444Z,0.00
2022-09-06T21:00:59.500Z,0.00
2022-09-06T21:01:59.450Z,0.00
2022-09-06T21:02:59.511Z,0.00
2022-09-06T21:03:59.394Z,0.00
2022-09-06T21:04:59.404Z,0.00
2022-09-06T21:05:59.542Z,0.00
2022-09-06T21:06:59.405Z,0.00
2022-09-06T21:07:59.360Z,0.00
2022-09-06T21:08:59.418Z,0.00
2022-09-06T21:09:59.516Z,0.00
2022-09-06T21:10:59.431Z,0.00
2022-09-06T21:11:59.345Z,0.00
2022-09-06T21:12:59.300Z,0.00
2022-09-06T21:13:59.267Z,0.00
2022-09-06T21:14:59.294Z,0.00
